sensor_id;sensor_type;location;lat;lon;timestamp;P1;durP1;ratioP1;P2;durP2;ratioP2
60241;SDS011;46103;52.076;113.488;2023-04-29T00:00:44;35.70;;;16.40;;
60241;SDS011;46103;52.076;113.488;2023-04-29T00:03:49;38.40;;;16.65;;
60241;SDS011;46103;52.076;113.488;2023-04-29T00:06:53;37.22;;;14.98;;
60241;SDS011;46103;52.076;113.488;2023-04-29T00:09:57;41.80;;;16.00;;
60241;SDS011;46103;52.076;113.488;2023-04-29T00:13:01;48.30;;;15.77;;
60241;SDS011;46103;52.076;113.488;2023-04-29T00:16:06;48.30;;;16.83;;
60241;SDS011;46103;52.076;113.488;2023-04-29T00:19:11;40.63;;;16.60;;
60241;SDS011;46103;52.076;113.488;2023-04-29T00:22:15;43.65;;;18.67;;
60241;SDS011;46103;52.076;113.488;2023-04-29T00:25:34;49.10;;;18.55;;
60241;SDS011;46103;52.076;113.488;2023-04-29T00:28:40;39.95;;;17.17;;
60241;SDS011;46103;52.076;113.488;2023-04-29T00:31:47;48.55;;;17.73;;
60241;SDS011;46103;52.076;113.488;2023-04-29T00:38:22;43.80;;;17.33;;
60241;SDS011;46103;52.076;113.488;2023-04-29T00:42:15;42.58;;;17.45;;
60241;SDS011;46103;52.076;113.488;2023-04-29T00:45:18;42.20;;;17.35;;
60241;SDS011;46103;52.076;113.488;2023-04-29T00:48:22;44.08;;;16.83;;
60241;SDS011;46103;52.076;113.488;2023-04-29T00:51:26;37.80;;;15.35;;
60241;SDS011;46103;52.076;113.488;2023-04-29T00:54:30;35.28;;;14.38;;
60241;SDS011;46103;52.076;113.488;2023-04-29T00:57:33;35.55;;;14.00;;
60241;SDS011;46103;52.076;113.488;2023-04-29T01:00:37;34.85;;;15.40;;
60241;SDS011;46103;52.076;113.488;2023-04-29T01:03:43;27.63;;;13.10;;
60241;SDS011;46103;52.076;113.488;2023-04-29T01:06:55;34.40;;;15.68;;
60241;SDS011;46103;52.076;113.488;2023-04-29T01:10:19;32.45;;;14.98;;
60241;SDS011;46103;52.076;113.488;2023-04-29T01:14:02;31.67;;;14.77;;
60241;SDS011;46103;52.076;113.488;2023-04-29T01:17:13;39.83;;;16.27;;
60241;SDS011;46103;52.076;113.488;2023-04-29T01:20:22;39.42;;;14.93;;
60241;SDS011;46103;52.076;113.488;2023-04-29T01:23:28;31.83;;;13.55;;
60241;SDS011;46103;52.076;113.488;2023-04-29T01:26:32;36.95;;;14.38;;
60241;SDS011;46103;52.076;113.488;2023-04-29T01:29:50;24.58;;;10.85;;
60241;SDS011;46103;52.076;113.488;2023-04-29T01:36:46;37.40;;;13.07;;
60241;SDS011;46103;52.076;113.488;2023-04-29T01:43:38;27.42;;;12.48;;
60241;SDS011;46103;52.076;113.488;2023-04-29T01:46:52;29.38;;;10.85;;
60241;SDS011;46103;52.076;113.488;2023-04-29T01:50:04;34.03;;;11.43;;
60241;SDS011;46103;52.076;113.488;2023-04-29T01:53:08;30.20;;;11.48;;
60241;SDS011;46103;52.076;113.488;2023-04-29T01:56:13;27.30;;;12.20;;
60241;SDS011;46103;52.076;113.488;2023-04-29T01:59:34;25.10;;;10.73;;
60241;SDS011;46103;52.076;113.488;2023-04-29T02:02:58;21.33;;;9.07;;
60241;SDS011;46103;52.076;113.488;2023-04-29T02:06:14;30.08;;;9.95;;
60241;SDS011;46103;52.076;113.488;2023-04-29T02:09:19;20.20;;;9.50;;
60241;SDS011;46103;52.076;113.488;2023-04-29T02:12:29;22.42;;;9.73;;
60241;SDS011;46103;52.076;113.488;2023-04-29T02:15:33;17.48;;;9.65;;
60241;SDS011;46103;52.076;113.488;2023-04-29T02:18:38;23.98;;;9.93;;
60241;SDS011;46103;52.076;113.488;2023-04-29T02:21:42;21.90;;;9.82;;
60241;SDS011;46103;52.076;113.488;2023-04-29T02:24:46;19.80;;;9.10;;
60241;SDS011;46103;52.076;113.488;2023-04-29T02:27:49;18.60;;;8.65;;
60241;SDS011;46103;52.076;113.488;2023-04-29T02:30:53;19.88;;;7.35;;
60241;SDS011;46103;52.076;113.488;2023-04-29T02:33:57;23.83;;;7.63;;
60241;SDS011;46103;52.076;113.488;2023-04-29T02:37:02;22.80;;;8.23;;
60241;SDS011;46103;52.076;113.488;2023-04-29T02:40:06;20.40;;;8.20;;
60241;SDS011;46103;52.076;113.488;2023-04-29T02:43:11;17.55;;;8.15;;
60241;SDS011;46103;52.076;113.488;2023-04-29T02:46:14;21.35;;;6.78;;
60241;SDS011;46103;52.076;113.488;2023-04-29T02:49:41;18.23;;;7.55;;
60241;SDS011;46103;52.076;113.488;2023-04-29T02:53:08;22.25;;;8.18;;
60241;SDS011;46103;52.076;113.488;2023-04-29T02:56:13;13.32;;;6.65;;
60241;SDS011;46103;52.076;113.488;2023-04-29T02:59:17;18.85;;;8.38;;
60241;SDS011;46103;52.076;113.488;2023-04-29T03:02:21;16.55;;;7.22;;
60241;SDS011;46103;52.076;113.488;2023-04-29T03:05:29;13.70;;;6.85;;
60241;SDS011;46103;52.076;113.488;2023-04-29T03:08:33;13.43;;;6.07;;
60241;SDS011;46103;52.076;113.488;2023-04-29T03:11:37;17.55;;;6.68;;
60241;SDS011;46103;52.076;113.488;2023-04-29T03:15:23;15.25;;;6.22;;
60241;SDS011;46103;52.076;113.488;2023-04-29T03:29:52;10.68;;;3.97;;
60241;SDS011;46103;52.076;113.488;2023-04-29T03:33:02;9.35;;;5.35;;
60241;SDS011;46103;52.076;113.488;2023-04-29T03:37:44;12.15;;;4.00;;
60241;SDS011;46103;52.076;113.488;2023-04-29T03:40:54;7.28;;;4.07;;
60241;SDS011;46103;52.076;113.488;2023-04-29T03:44:02;8.27;;;3.35;;
60241;SDS011;46103;52.076;113.488;2023-04-29T03:47:08;7.90;;;3.67;;
60241;SDS011;46103;52.076;113.488;2023-04-29T03:50:12;5.13;;;3.15;;
60241;SDS011;46103;52.076;113.488;2023-04-29T04:00:10;3.57;;;2.50;;
60241;SDS011;46103;52.076;113.488;2023-04-29T04:03:25;6.60;;;3.13;;
60241;SDS011;46103;52.076;113.488;2023-04-29T04:06:32;11.40;;;3.33;;
60241;SDS011;46103;52.076;113.488;2023-04-29T04:09:36;8.23;;;3.10;;
60241;SDS011;46103;52.076;113.488;2023-04-29T04:12:41;4.10;;;2.33;;
60241;SDS011;46103;52.076;113.488;2023-04-29T04:15:49;7.90;;;2.58;;
60241;SDS011;46103;52.076;113.488;2023-04-29T04:18:54;15.88;;;4.47;;
60241;SDS011;46103;52.076;113.488;2023-04-29T04:21:58;13.45;;;2.50;;
60241;SDS011;46103;52.076;113.488;2023-04-29T04:25:01;7.38;;;2.40;;
60241;SDS011;46103;52.076;113.488;2023-04-29T04:28:07;4.25;;;2.25;;
60241;SDS011;46103;52.076;113.488;2023-04-29T04:31:31;5.40;;;2.33;;
60241;SDS011;46103;52.076;113.488;2023-04-29T04:34:37;8.73;;;2.17;;
60241;SDS011;46103;52.076;113.488;2023-04-29T04:37:43;8.15;;;2.90;;
60241;SDS011;46103;52.076;113.488;2023-04-29T04:40:48;8.15;;;2.80;;
60241;SDS011;46103;52.076;113.488;2023-04-29T04:44:12;8.52;;;2.80;;
60241;SDS011;46103;52.076;113.488;2023-04-29T04:47:52;8.80;;;2.80;;
60241;SDS011;46103;52.076;113.488;2023-04-29T04:52:18;6.85;;;3.05;;
60241;SDS011;46103;52.076;113.488;2023-04-29T04:55:34;3.85;;;2.38;;
60241;SDS011;46103;52.076;113.488;2023-04-29T04:58:39;5.60;;;2.60;;
60241;SDS011;46103;52.076;113.488;2023-04-29T05:01:43;6.25;;;2.70;;
60241;SDS011;46103;52.076;113.488;2023-04-29T05:04:50;5.32;;;2.25;;
60241;SDS011;46103;52.076;113.488;2023-04-29T05:07:59;6.72;;;2.28;;
60241;SDS011;46103;52.076;113.488;2023-04-29T05:11:20;5.00;;;2.17;;
60241;SDS011;46103;52.076;113.488;2023-04-29T05:14:59;4.53;;;2.53;;
60241;SDS011;46103;52.076;113.488;2023-04-29T05:18:10;6.65;;;2.38;;
60241;SDS011;46103;52.076;113.488;2023-04-29T05:21:16;7.97;;;2.80;;
60241;SDS011;46103;52.076;113.488;2023-04-29T05:24:21;6.50;;;2.72;;
60241;SDS011;46103;52.076;113.488;2023-04-29T05:27:24;6.40;;;2.78;;
60241;SDS011;46103;52.076;113.488;2023-04-29T05:30:29;12.40;;;3.55;;
60241;SDS011;46103;52.076;113.488;2023-04-29T05:33:33;9.60;;;2.80;;
60241;SDS011;46103;52.076;113.488;2023-04-29T05:36:37;8.30;;;2.55;;
60241;SDS011;46103;52.076;113.488;2023-04-29T05:39:40;8.48;;;2.55;;
60241;SDS011;46103;52.076;113.488;2023-04-29T05:42:49;11.80;;;3.20;;
60241;SDS011;46103;52.076;113.488;2023-04-29T05:45:53;11.82;;;2.90;;
60241;SDS011;46103;52.076;113.488;2023-04-29T05:48:58;14.30;;;3.67;;
60241;SDS011;46103;52.076;113.488;2023-04-29T05:52:02;9.60;;;3.78;;
60241;SDS011;46103;52.076;113.488;2023-04-29T05:55:13;8.77;;;3.00;;
60241;SDS011;46103;52.076;113.488;2023-04-29T05:58:17;6.65;;;2.60;;
60241;SDS011;46103;52.076;113.488;2023-04-29T06:01:21;6.97;;;3.58;;
60241;SDS011;46103;52.076;113.488;2023-04-29T06:04:25;7.38;;;2.88;;
60241;SDS011;46103;52.076;113.488;2023-04-29T06:07:47;7.50;;;2.90;;
60241;SDS011;46103;52.076;113.488;2023-04-29T06:11:05;9.85;;;3.25;;
60241;SDS011;46103;52.076;113.488;2023-04-29T06:14:09;9.98;;;3.20;;
60241;SDS011;46103;52.076;113.488;2023-04-29T06:17:13;7.13;;;2.95;;
60241;SDS011;46103;52.076;113.488;2023-04-29T06:20:17;8.82;;;2.90;;
60241;SDS011;46103;52.076;113.488;2023-04-29T06:23:21;7.55;;;2.92;;
60241;SDS011;46103;52.076;113.488;2023-04-29T06:26:25;5.20;;;2.40;;
60241;SDS011;46103;52.076;113.488;2023-04-29T06:29:29;6.00;;;2.10;;
60241;SDS011;46103;52.076;113.488;2023-04-29T06:32:33;5.20;;;2.50;;
60241;SDS011;46103;52.076;113.488;2023-04-29T06:35:39;8.32;;;2.95;;
60241;SDS011;46103;52.076;113.488;2023-04-29T06:38:43;6.63;;;2.60;;
60241;SDS011;46103;52.076;113.488;2023-04-29T06:42:25;4.22;;;2.45;;
60241;SDS011;46103;52.076;113.488;2023-04-29T06:45:48;6.05;;;2.20;;
60241;SDS011;46103;52.076;113.488;2023-04-29T06:48:58;5.32;;;2.30;;
60241;SDS011;46103;52.076;113.488;2023-04-29T06:52:05;8.45;;;3.25;;
60241;SDS011;46103;52.076;113.488;2023-04-29T06:55:09;6.28;;;3.75;;
60241;SDS011;46103;52.076;113.488;2023-04-29T06:58:16;6.10;;;2.08;;
60241;SDS011;46103;52.076;113.488;2023-04-29T07:01:20;4.75;;;2.35;;
60241;SDS011;46103;52.076;113.488;2023-04-29T07:04:24;6.50;;;2.50;;
60241;SDS011;46103;52.076;113.488;2023-04-29T07:07:28;11.25;;;2.83;;
60241;SDS011;46103;52.076;113.488;2023-04-29T07:10:32;6.72;;;2.67;;
60241;SDS011;46103;52.076;113.488;2023-04-29T07:13:36;3.30;;;2.40;;
60241;SDS011;46103;52.076;113.488;2023-04-29T07:16:40;10.48;;;3.15;;
60241;SDS011;46103;52.076;113.488;2023-04-29T07:19:44;6.07;;;2.55;;
60241;SDS011;46103;52.076;113.488;2023-04-29T07:22:47;4.28;;;2.28;;
60241;SDS011;46103;52.076;113.488;2023-04-29T07:25:50;6.65;;;2.75;;
60241;SDS011;46103;52.076;113.488;2023-04-29T07:28:54;7.90;;;2.85;;
60241;SDS011;46103;52.076;113.488;2023-04-29T07:31:58;4.63;;;2.58;;
60241;SDS011;46103;52.076;113.488;2023-04-29T07:35:01;4.43;;;2.00;;
60241;SDS011;46103;52.076;113.488;2023-04-29T07:38:04;3.40;;;2.00;;
60241;SDS011;46103;52.076;113.488;2023-04-29T07:41:08;3.38;;;1.90;;
60241;SDS011;46103;52.076;113.488;2023-04-29T07:44:12;4.68;;;1.90;;
60241;SDS011;46103;52.076;113.488;2023-04-29T07:47:17;3.97;;;1.90;;
60241;SDS011;46103;52.076;113.488;2023-04-29T07:50:20;6.40;;;1.85;;
60241;SDS011;46103;52.076;113.488;2023-04-29T07:53:25;3.85;;;2.60;;
60241;SDS011;46103;52.076;113.488;2023-04-29T07:56:28;9.73;;;1.95;;
60241;SDS011;46103;52.076;113.488;2023-04-29T07:59:34;6.97;;;2.50;;
60241;SDS011;46103;52.076;113.488;2023-04-29T08:02:37;6.95;;;2.20;;
60241;SDS011;46103;52.076;113.488;2023-04-29T08:05:41;4.97;;;2.00;;
60241;SDS011;46103;52.076;113.488;2023-04-29T08:08:50;3.67;;;2.20;;
60241;SDS011;46103;52.076;113.488;2023-04-29T08:11:54;5.35;;;2.08;;
60241;SDS011;46103;52.076;113.488;2023-04-29T08:14:58;4.03;;;2.05;;
60241;SDS011;46103;52.076;113.488;2023-04-29T08:18:03;3.35;;;1.75;;
60241;SDS011;46103;52.076;113.488;2023-04-29T08:21:06;5.70;;;2.17;;
60241;SDS011;46103;52.076;113.488;2023-04-29T08:24:11;4.28;;;2.28;;
60241;SDS011;46103;52.076;113.488;2023-04-29T08:27:15;6.15;;;2.47;;
60241;SDS011;46103;52.076;113.488;2023-04-29T08:30:19;7.75;;;2.00;;
60241;SDS011;46103;52.076;113.488;2023-04-29T08:33:22;3.28;;;2.17;;
60241;SDS011;46103;52.076;113.488;2023-04-29T08:36:26;5.70;;;2.53;;
60241;SDS011;46103;52.076;113.488;2023-04-29T08:39:30;5.70;;;1.90;;
60241;SDS011;46103;52.076;113.488;2023-04-29T08:42:34;4.10;;;1.80;;
60241;SDS011;46103;52.076;113.488;2023-04-29T08:45:40;5.63;;;2.07;;
60241;SDS011;46103;52.076;113.488;2023-04-29T08:48:44;10.35;;;2.30;;
60241;SDS011;46103;52.076;113.488;2023-04-29T08:51:49;5.93;;;1.95;;
60241;SDS011;46103;52.076;113.488;2023-04-29T08:54:55;3.45;;;1.73;;
60241;SDS011;46103;52.076;113.488;2023-04-29T08:57:59;2.88;;;1.50;;
60241;SDS011;46103;52.076;113.488;2023-04-29T09:01:06;2.90;;;1.63;;
60241;SDS011;46103;52.076;113.488;2023-04-29T09:04:14;5.68;;;1.70;;
60241;SDS011;46103;52.076;113.488;2023-04-29T09:07:53;6.20;;;2.10;;
60241;SDS011;46103;52.076;113.488;2023-04-29T09:11:09;10.30;;;2.35;;
60241;SDS011;46103;52.076;113.488;2023-04-29T09:14:15;7.47;;;2.60;;
60241;SDS011;46103;52.076;113.488;2023-04-29T09:17:37;10.40;;;3.20;;
60241;SDS011;46103;52.076;113.488;2023-04-29T09:20:51;10.45;;;3.20;;
60241;SDS011;46103;52.076;113.488;2023-04-29T09:24:01;9.02;;;3.50;;
60241;SDS011;46103;52.076;113.488;2023-04-29T09:27:05;5.60;;;2.30;;
60241;SDS011;46103;52.076;113.488;2023-04-29T09:30:10;5.95;;;1.90;;
60241;SDS011;46103;52.076;113.488;2023-04-29T09:33:46;13.65;;;2.30;;
60241;SDS011;46103;52.076;113.488;2023-04-29T09:36:59;5.35;;;2.92;;
60241;SDS011;46103;52.076;113.488;2023-04-29T09:40:02;6.38;;;2.10;;
60241;SDS011;46103;52.076;113.488;2023-04-29T09:43:11;5.68;;;2.17;;
60241;SDS011;46103;52.076;113.488;2023-04-29T09:46:16;6.93;;;2.17;;
60241;SDS011;46103;52.076;113.488;2023-04-29T09:49:21;3.63;;;1.88;;
60241;SDS011;46103;52.076;113.488;2023-04-29T09:52:29;7.97;;;2.92;;
60241;SDS011;46103;52.076;113.488;2023-04-29T09:59:07;6.40;;;1.70;;
60241;SDS011;46103;52.076;113.488;2023-04-29T10:02:17;4.55;;;2.90;;
60241;SDS011;46103;52.076;113.488;2023-04-29T10:05:21;6.57;;;2.00;;
60241;SDS011;46103;52.076;113.488;2023-04-29T10:08:26;10.02;;;2.90;;
60241;SDS011;46103;52.076;113.488;2023-04-29T10:11:31;5.60;;;1.90;;
60241;SDS011;46103;52.076;113.488;2023-04-29T10:14:42;4.77;;;1.97;;
60241;SDS011;46103;52.076;113.488;2023-04-29T10:21:21;9.57;;;3.80;;
60241;SDS011;46103;52.076;113.488;2023-04-29T10:24:30;6.75;;;2.40;;
60241;SDS011;46103;52.076;113.488;2023-04-29T10:27:34;4.93;;;2.65;;
60241;SDS011;46103;52.076;113.488;2023-04-29T10:30:38;8.90;;;2.78;;
60241;SDS011;46103;52.076;113.488;2023-04-29T10:33:45;9.07;;;2.50;;
60241;SDS011;46103;52.076;113.488;2023-04-29T10:36:50;7.65;;;3.80;;
60241;SDS011;46103;52.076;113.488;2023-04-29T10:43:10;6.25;;;2.45;;
60241;SDS011;46103;52.076;113.488;2023-04-29T10:46:21;9.07;;;3.25;;
60241;SDS011;46103;52.076;113.488;2023-04-29T10:49:25;9.23;;;3.10;;
60241;SDS011;46103;52.076;113.488;2023-04-29T10:52:53;9.20;;;2.83;;
60241;SDS011;46103;52.076;113.488;2023-04-29T10:56:02;8.38;;;2.65;;
60241;SDS011;46103;52.076;113.488;2023-04-29T10:59:11;6.80;;;2.60;;
60241;SDS011;46103;52.076;113.488;2023-04-29T11:02:16;5.18;;;2.72;;
60241;SDS011;46103;52.076;113.488;2023-04-29T11:05:34;8.55;;;2.47;;
60241;SDS011;46103;52.076;113.488;2023-04-29T11:08:39;7.15;;;3.20;;
60241;SDS011;46103;52.076;113.488;2023-04-29T11:14:48;10.57;;;3.90;;
60241;SDS011;46103;52.076;113.488;2023-04-29T11:17:57;9.60;;;3.80;;
60241;SDS011;46103;52.076;113.488;2023-04-29T11:24:24;14.07;;;5.72;;
60241;SDS011;46103;52.076;113.488;2023-04-29T11:27:43;18.13;;;9.25;;
60241;SDS011;46103;52.076;113.488;2023-04-29T11:30:51;26.42;;;11.32;;
60241;SDS011;46103;52.076;113.488;2023-04-29T11:33:56;24.25;;;10.57;;
60241;SDS011;46103;52.076;113.488;2023-04-29T11:37:03;20.30;;;9.13;;
60241;SDS011;46103;52.076;113.488;2023-04-29T11:40:08;24.40;;;9.73;;
60241;SDS011;46103;52.076;113.488;2023-04-29T11:43:17;32.35;;;12.77;;
60241;SDS011;46103;52.076;113.488;2023-04-29T11:49:29;35.45;;;13.60;;
60241;SDS011;46103;52.076;113.488;2023-04-29T11:52:37;34.78;;;10.32;;
60241;SDS011;46103;52.076;113.488;2023-04-29T11:55:41;32.83;;;12.57;;
60241;SDS011;46103;52.076;113.488;2023-04-29T11:58:46;30.75;;;14.57;;
60241;SDS011;46103;52.076;113.488;2023-04-29T12:01:52;42.40;;;15.30;;
60241;SDS011;46103;52.076;113.488;2023-04-29T12:04:57;35.65;;;13.48;;
60241;SDS011;46103;52.076;113.488;2023-04-29T12:08:05;32.72;;;12.15;;
60241;SDS011;46103;52.076;113.488;2023-04-29T12:11:13;29.15;;;12.65;;
60241;SDS011;46103;52.076;113.488;2023-04-29T12:14:19;28.77;;;11.00;;
60241;SDS011;46103;52.076;113.488;2023-04-29T12:17:22;25.15;;;10.25;;
60241;SDS011;46103;52.076;113.488;2023-04-29T12:20:29;21.60;;;9.80;;
60241;SDS011;46103;52.076;113.488;2023-04-29T12:23:35;23.23;;;8.70;;
60241;SDS011;46103;52.076;113.488;2023-04-29T12:26:41;22.83;;;8.65;;
60241;SDS011;46103;52.076;113.488;2023-04-29T12:34:06;17.42;;;4.63;;
60241;SDS011;46103;52.076;113.488;2023-04-29T12:37:12;15.48;;;6.00;;
60241;SDS011;46103;52.076;113.488;2023-04-29T12:40:21;17.33;;;4.25;;
60241;SDS011;46103;52.076;113.488;2023-04-29T12:43:46;17.95;;;5.30;;
60241;SDS011;46103;52.076;113.488;2023-04-29T12:47:22;12.60;;;4.53;;
60241;SDS011;46103;52.076;113.488;2023-04-29T12:50:53;16.67;;;4.20;;
60241;SDS011;46103;52.076;113.488;2023-04-29T12:54:04;17.20;;;4.38;;
60241;SDS011;46103;52.076;113.488;2023-04-29T12:57:12;8.80;;;4.32;;
60241;SDS011;46103;52.076;113.488;2023-04-29T13:01:00;10.50;;;4.35;;
60241;SDS011;46103;52.076;113.488;2023-04-29T13:04:13;12.35;;;4.45;;
60241;SDS011;46103;52.076;113.488;2023-04-29T13:07:40;13.63;;;6.07;;
60241;SDS011;46103;52.076;113.488;2023-04-29T13:11:00;29.40;;;5.95;;
60241;SDS011;46103;52.076;113.488;2023-04-29T13:14:06;27.90;;;10.00;;
60241;SDS011;46103;52.076;113.488;2023-04-29T13:17:11;35.15;;;9.68;;
60241;SDS011;46103;52.076;113.488;2023-04-29T13:20:15;30.63;;;9.77;;
60241;SDS011;46103;52.076;113.488;2023-04-29T13:23:55;27.70;;;8.70;;
60241;SDS011;46103;52.076;113.488;2023-04-29T13:26:59;97.75;;;36.90;;
60241;SDS011;46103;52.076;113.488;2023-04-29T13:30:18;87.05;;;33.42;;
60241;SDS011;46103;52.076;113.488;2023-04-29T13:33:24;98.38;;;34.72;;
60241;SDS011;46103;52.076;113.488;2023-04-29T13:36:42;83.97;;;29.23;;
60241;SDS011;46103;52.076;113.488;2023-04-29T13:39:51;70.68;;;25.40;;
60241;SDS011;46103;52.076;113.488;2023-04-29T13:42:58;81.53;;;25.98;;
60241;SDS011;46103;52.076;113.488;2023-04-29T13:46:23;59.55;;;20.30;;
60241;SDS011;46103;52.076;113.488;2023-04-29T13:49:32;61.65;;;21.83;;
60241;SDS011;46103;52.076;113.488;2023-04-29T13:52:58;91.30;;;29.40;;
60241;SDS011;46103;52.076;113.488;2023-04-29T13:56:25;26.88;;;10.30;;
60241;SDS011;46103;52.076;113.488;2023-04-29T13:59:49;21.17;;;8.77;;
60241;SDS011;46103;52.076;113.488;2023-04-29T14:03:12;39.08;;;15.48;;
60241;SDS011;46103;52.076;113.488;2023-04-29T14:06:17;61.45;;;23.45;;
60241;SDS011;46103;52.076;113.488;2023-04-29T14:09:21;53.28;;;19.95;;
60241;SDS011;46103;52.076;113.488;2023-04-29T14:12:24;36.08;;;16.02;;
60241;SDS011;46103;52.076;113.488;2023-04-29T14:15:28;34.05;;;12.63;;
60241;SDS011;46103;52.076;113.488;2023-04-29T14:18:31;29.23;;;11.38;;
60241;SDS011;46103;52.076;113.488;2023-04-29T14:21:34;41.30;;;16.88;;
60241;SDS011;46103;52.076;113.488;2023-04-29T14:24:37;54.45;;;22.42;;
60241;SDS011;46103;52.076;113.488;2023-04-29T14:27:41;93.55;;;43.20;;
60241;SDS011;46103;52.076;113.488;2023-04-29T14:30:45;80.72;;;35.22;;
60241;SDS011;46103;52.076;113.488;2023-04-29T14:33:50;68.22;;;28.50;;
60241;SDS011;46103;52.076;113.488;2023-04-29T14:36:53;48.50;;;20.58;;
60241;SDS011;46103;52.076;113.488;2023-04-29T14:40:21;50.40;;;21.42;;
60241;SDS011;46103;52.076;113.488;2023-04-29T14:45:13;42.17;;;15.55;;
60241;SDS011;46103;52.076;113.488;2023-04-29T14:48:32;34.47;;;15.52;;
60241;SDS011;46103;52.076;113.488;2023-04-29T14:51:38;59.90;;;25.80;;
60241;SDS011;46103;52.076;113.488;2023-04-29T14:54:41;68.18;;;23.63;;
60241;SDS011;46103;52.076;113.488;2023-04-29T14:57:46;52.60;;;19.98;;
60241;SDS011;46103;52.076;113.488;2023-04-29T15:00:50;56.13;;;22.65;;
60241;SDS011;46103;52.076;113.488;2023-04-29T15:04:07;57.85;;;23.48;;
60241;SDS011;46103;52.076;113.488;2023-04-29T15:07:25;64.80;;;22.40;;
60241;SDS011;46103;52.076;113.488;2023-04-29T15:11:25;49.35;;;18.85;;
60241;SDS011;46103;52.076;113.488;2023-04-29T15:14:29;43.72;;;17.05;;
60241;SDS011;46103;52.076;113.488;2023-04-29T15:17:33;46.38;;;17.70;;
60241;SDS011;46103;52.076;113.488;2023-04-29T15:20:37;50.00;;;18.98;;
60241;SDS011;46103;52.076;113.488;2023-04-29T15:23:42;53.17;;;19.63;;
60241;SDS011;46103;52.076;113.488;2023-04-29T15:26:47;59.20;;;22.08;;
60241;SDS011;46103;52.076;113.488;2023-04-29T15:29:51;63.20;;;20.48;;
60241;SDS011;46103;52.076;113.488;2023-04-29T15:32:58;61.53;;;20.23;;
60241;SDS011;46103;52.076;113.488;2023-04-29T15:36:02;58.67;;;21.42;;
60241;SDS011;46103;52.076;113.488;2023-04-29T15:39:06;60.03;;;18.67;;
60241;SDS011;46103;52.076;113.488;2023-04-29T15:42:14;52.97;;;18.60;;
60241;SDS011;46103;52.076;113.488;2023-04-29T15:45:17;54.08;;;18.77;;
60241;SDS011;46103;52.076;113.488;2023-04-29T15:48:21;55.15;;;18.88;;
60241;SDS011;46103;52.076;113.488;2023-04-29T15:51:24;43.08;;;16.17;;
60241;SDS011;46103;52.076;113.488;2023-04-29T15:54:29;48.20;;;16.70;;
60241;SDS011;46103;52.076;113.488;2023-04-29T15:57:32;47.83;;;15.80;;
60241;SDS011;46103;52.076;113.488;2023-04-29T16:00:36;36.65;;;15.73;;
60241;SDS011;46103;52.076;113.488;2023-04-29T16:03:40;37.20;;;13.73;;
60241;SDS011;46103;52.076;113.488;2023-04-29T16:06:43;38.88;;;12.80;;
60241;SDS011;46103;52.076;113.488;2023-04-29T16:09:47;33.50;;;12.25;;
60241;SDS011;46103;52.076;113.488;2023-04-29T16:12:51;31.23;;;10.45;;
60241;SDS011;46103;52.076;113.488;2023-04-29T16:15:55;27.27;;;10.73;;
60241;SDS011;46103;52.076;113.488;2023-04-29T16:18:59;24.30;;;9.98;;
60241;SDS011;46103;52.076;113.488;2023-04-29T16:22:03;24.73;;;10.10;;
60241;SDS011;46103;52.076;113.488;2023-04-29T16:25:07;23.58;;;9.95;;
60241;SDS011;46103;52.076;113.488;2023-04-29T16:28:13;31.20;;;10.90;;
60241;SDS011;46103;52.076;113.488;2023-04-29T16:31:16;26.92;;;9.80;;
60241;SDS011;46103;52.076;113.488;2023-04-29T16:34:21;25.73;;;9.70;;
60241;SDS011;46103;52.076;113.488;2023-04-29T16:37:26;30.48;;;11.38;;
60241;SDS011;46103;52.076;113.488;2023-04-29T16:40:30;27.95;;;11.13;;
60241;SDS011;46103;52.076;113.488;2023-04-29T16:43:33;31.98;;;12.32;;
60241;SDS011;46103;52.076;113.488;2023-04-29T16:46:38;25.63;;;10.40;;
60241;SDS011;46103;52.076;113.488;2023-04-29T16:49:42;33.97;;;11.65;;
60241;SDS011;46103;52.076;113.488;2023-04-29T16:52:46;33.58;;;11.30;;
60241;SDS011;46103;52.076;113.488;2023-04-29T16:55:50;23.25;;;9.63;;
60241;SDS011;46103;52.076;113.488;2023-04-29T16:58:55;28.13;;;9.80;;
60241;SDS011;46103;52.076;113.488;2023-04-29T17:01:58;25.08;;;10.20;;
60241;SDS011;46103;52.076;113.488;2023-04-29T17:05:08;29.95;;;9.85;;
60241;SDS011;46103;52.076;113.488;2023-04-29T17:08:12;27.50;;;10.13;;
60241;SDS011;46103;52.076;113.488;2023-04-29T17:11:17;22.75;;;8.32;;
60241;SDS011;46103;52.076;113.488;2023-04-29T17:14:21;29.10;;;11.05;;
60241;SDS011;46103;52.076;113.488;2023-04-29T17:17:26;32.97;;;10.07;;
60241;SDS011;46103;52.076;113.488;2023-04-29T17:20:30;38.35;;;11.23;;
60241;SDS011;46103;52.076;113.488;2023-04-29T17:23:35;31.20;;;10.80;;
60241;SDS011;46103;52.076;113.488;2023-04-29T17:26:48;31.50;;;10.52;;
60241;SDS011;46103;52.076;113.488;2023-04-29T17:29:52;27.90;;;11.63;;
60241;SDS011;46103;52.076;113.488;2023-04-29T17:32:56;25.88;;;11.73;;
60241;SDS011;46103;52.076;113.488;2023-04-29T17:36:07;31.58;;;11.27;;
60241;SDS011;46103;52.076;113.488;2023-04-29T17:39:11;33.53;;;11.27;;
60241;SDS011;46103;52.076;113.488;2023-04-29T17:42:17;32.65;;;10.43;;
60241;SDS011;46103;52.076;113.488;2023-04-29T17:45:23;31.02;;;11.15;;
60241;SDS011;46103;52.076;113.488;2023-04-29T17:48:29;27.42;;;11.32;;
60241;SDS011;46103;52.076;113.488;2023-04-29T17:51:34;36.65;;;12.02;;
60241;SDS011;46103;52.076;113.488;2023-04-29T17:54:39;43.60;;;17.00;;
60241;SDS011;46103;52.076;113.488;2023-04-29T17:57:46;51.30;;;18.38;;
60241;SDS011;46103;52.076;113.488;2023-04-29T18:00:51;67.70;;;21.90;;
60241;SDS011;46103;52.076;113.488;2023-04-29T18:03:55;64.45;;;21.92;;
60241;SDS011;46103;52.076;113.488;2023-04-29T18:06:59;50.55;;;19.40;;
60241;SDS011;46103;52.076;113.488;2023-04-29T18:10:05;42.63;;;15.63;;
60241;SDS011;46103;52.076;113.488;2023-04-29T18:13:12;52.97;;;18.63;;
60241;SDS011;46103;52.076;113.488;2023-04-29T18:16:16;54.63;;;18.45;;
60241;SDS011;46103;52.076;113.488;2023-04-29T18:19:21;53.83;;;18.55;;
60241;SDS011;46103;52.076;113.488;2023-04-29T18:22:26;47.17;;;17.08;;
60241;SDS011;46103;52.076;113.488;2023-04-29T18:25:29;29.17;;;12.88;;
60241;SDS011;46103;52.076;113.488;2023-04-29T18:28:33;33.25;;;13.15;;
60241;SDS011;46103;52.076;113.488;2023-04-29T18:31:37;27.13;;;11.77;;
60241;SDS011;46103;52.076;113.488;2023-04-29T18:34:41;30.13;;;11.10;;
60241;SDS011;46103;52.076;113.488;2023-04-29T18:37:46;25.30;;;10.48;;
60241;SDS011;46103;52.076;113.488;2023-04-29T18:40:51;20.27;;;9.25;;
60241;SDS011;46103;52.076;113.488;2023-04-29T18:43:55;19.55;;;8.70;;
60241;SDS011;46103;52.076;113.488;2023-04-29T18:46:59;18.85;;;7.78;;
60241;SDS011;46103;52.076;113.488;2023-04-29T18:50:04;16.05;;;7.88;;
60241;SDS011;46103;52.076;113.488;2023-04-29T18:53:08;21.92;;;9.18;;
60241;SDS011;46103;52.076;113.488;2023-04-29T18:56:12;19.38;;;8.30;;
60241;SDS011;46103;52.076;113.488;2023-04-29T18:59:16;17.88;;;7.57;;
60241;SDS011;46103;52.076;113.488;2023-04-29T19:02:23;17.55;;;7.70;;